Morro Bay, CA (93442)

05:22 AM PDT am 25. September 2016 (GMT -0700)
Morro Bay Avalon Street | | Change Station

Höhe 331 ft 35.39 °N, 120.85 °W | Updated 11 minutes ago

Clear
Heiter
75.3 °F
gefühlte 77 °F
N
13.0
Wind Wechselnd Wind aus Ost-Nordost
Gusts 20.0 mph

Heute
Max. -- | schwach -- °F
--% Regenrisiko
Gestern
Max. -- | schwach -- °F
Precip. -- inch
Druck 29.97 inch
Sichtweite 10.0 Meilen
Wolken Heiter
Hitzeindex 77 °F
Taupunkt 44 °F
Feuchtigkeit 33%
Regen 0.00 inch
Schneehöhe Nicht verfügbar..
6:54 AM 6:54 PM
Letztes Viertel, 28% visible
METAR KSBP 251156Z AUTO 00000KT 10SM CLR 17/06 A2998 RMK AO2 SLP147 T01670061 10200 20161 55006
Druck 29.97 inch
Sichtweite 10.0 Meilen
Wolken Heiter
Hitzeindex 77 °F
Taupunkt 44 °F
Feuchtigkeit 33%
Regen 0.00 inch
Schneehöhe Nicht verfügbar..
6:54 AM 6:54 PM
Letztes Viertel, 28% visible
METAR KSBP 251156Z AUTO 00000KT 10SM CLR 17/06 A2998 RMK AO2 SLP147 T01670061 10200 20161 55006

10-Day Weather Forecast

Almanac

Astronomie

Sep. 25, 2016 Aufgang Untergang
Genaue Zeit
Bürgerliche Dämmerung
Nautische Dämmerung
Astronomische Dämmerung
Mond
Länge des sichtbaren Lichts
Tageslänge
Tomorrow will be .
, % of the Moon is Illuminated

Heutige Rekorde

State Highs State Lows

Community

WunderPhotos

Upload Photos

1,941,583 Fotos hochgeladen!

WunderBlog® & News

Nearby

Luftqualität

  Luftqualität LQ Index Schadstoff
Not available.

Schneehöhe

Station Depth Höhe

Erdbebenaktivität

Stadt Distance Mag. Time & Date
Minimum magnitude displayed is 2.5.

küstennahe Wassertemperaturen

Ort Temperatur

Stations

Wetterstationen in der Umgebung

Stationsstandort Temp. Windchill Taupunkt Feuchtigkeit Wind Precip. Höhe Aktualisiert Art
                   

Watches & Warnings

There are currently no watches in effect.